sensor_id;sensor_type;location;lat;lon;timestamp;P1;durP1;ratioP1;P2;durP2;ratioP2
2756;SDS011;1386;50.862;6.494;2022-12-18T00:04:14;19.60;;;14.98;;
2756;SDS011;1386;50.862;6.494;2022-12-18T00:09:50;18.73;;;14.32;;
2756;SDS011;1386;50.862;6.494;2022-12-18T00:12:23;21.00;;;15.00;;
2756;SDS011;1386;50.862;6.494;2022-12-18T00:14:56;17.52;;;14.63;;
2756;SDS011;1386;50.862;6.494;2022-12-18T00:24:55;21.23;;;13.43;;
2756;SDS011;1386;50.862;6.494;2022-12-18T00:28:18;25.23;;;14.50;;
2756;SDS011;1386;50.862;6.494;2022-12-18T00:31:16;26.45;;;15.07;;
2756;SDS011;1386;50.862;6.494;2022-12-18T00:33:46;25.27;;;15.05;;
2756;SDS011;1386;50.862;6.494;2022-12-18T00:36:13;21.00;;;14.98;;
2756;SDS011;1386;50.862;6.494;2022-12-18T00:38:42;38.28;;;15.50;;
2756;SDS011;1386;50.862;6.494;2022-12-18T00:41:13;25.77;;;17.20;;
2756;SDS011;1386;50.862;6.494;2022-12-18T00:44:04;24.10;;;13.95;;
2756;SDS011;1386;50.862;6.494;2022-12-18T00:46:32;21.85;;;13.82;;
2756;SDS011;1386;50.862;6.494;2022-12-18T00:49:00;22.35;;;13.75;;
2756;SDS011;1386;50.862;6.494;2022-12-18T00:51:28;20.80;;;14.90;;
2756;SDS011;1386;50.862;6.494;2022-12-18T00:53:54;25.77;;;14.57;;
2756;SDS011;1386;50.862;6.494;2022-12-18T00:56:22;20.10;;;14.40;;
2756;SDS011;1386;50.862;6.494;2022-12-18T00:58:49;20.05;;;14.18;;
2756;SDS011;1386;50.862;6.494;2022-12-18T01:01:16;18.65;;;14.93;;
2756;SDS011;1386;50.862;6.494;2022-12-18T01:03:43;18.58;;;13.30;;
2756;SDS011;1386;50.862;6.494;2022-12-18T01:06:12;18.33;;;13.63;;
2756;SDS011;1386;50.862;6.494;2022-12-18T01:08:40;21.75;;;14.80;;
2756;SDS011;1386;50.862;6.494;2022-12-18T01:11:07;15.60;;;12.43;;
2756;SDS011;1386;50.862;6.494;2022-12-18T01:13:35;15.93;;;12.40;;
2756;SDS011;1386;50.862;6.494;2022-12-18T01:16:02;18.67;;;13.90;;
2756;SDS011;1386;50.862;6.494;2022-12-18T01:18:29;20.25;;;13.85;;
2756;SDS011;1386;50.862;6.494;2022-12-18T01:20:56;16.98;;;12.15;;
2756;SDS011;1386;50.862;6.494;2022-12-18T01:23:24;19.35;;;13.77;;
2756;SDS011;1386;50.862;6.494;2022-12-18T01:25:51;17.75;;;13.13;;
2756;SDS011;1386;50.862;6.494;2022-12-18T01:28:18;15.82;;;11.25;;
2756;SDS011;1386;50.862;6.494;2022-12-18T01:30:44;15.35;;;11.50;;
2756;SDS011;1386;50.862;6.494;2022-12-18T01:33:11;20.13;;;13.63;;
2756;SDS011;1386;50.862;6.494;2022-12-18T01:35:41;17.17;;;12.60;;
2756;SDS011;1386;50.862;6.494;2022-12-18T01:38:09;18.45;;;12.75;;
2756;SDS011;1386;50.862;6.494;2022-12-18T01:40:39;17.83;;;13.02;;
2756;SDS011;1386;50.862;6.494;2022-12-18T01:43:08;18.05;;;12.85;;
2756;SDS011;1386;50.862;6.494;2022-12-18T01:45:37;15.27;;;13.10;;
2756;SDS011;1386;50.862;6.494;2022-12-18T01:48:05;16.27;;;12.32;;
2756;SDS011;1386;50.862;6.494;2022-12-18T01:50:34;19.85;;;13.55;;
2756;SDS011;1386;50.862;6.494;2022-12-18T01:53:05;14.20;;;11.60;;
2756;SDS011;1386;50.862;6.494;2022-12-18T01:55:36;15.65;;;12.52;;
2756;SDS011;1386;50.862;6.494;2022-12-18T01:58:09;14.82;;;11.50;;
2756;SDS011;1386;50.862;6.494;2022-12-18T02:00:36;19.45;;;12.38;;
2756;SDS011;1386;50.862;6.494;2022-12-18T02:03:03;16.55;;;12.75;;
2756;SDS011;1386;50.862;6.494;2022-12-18T02:05:34;15.90;;;12.68;;
2756;SDS011;1386;50.862;6.494;2022-12-18T02:08:08;20.48;;;13.13;;
2756;SDS011;1386;50.862;6.494;2022-12-18T02:10:43;19.00;;;12.45;;
2756;SDS011;1386;50.862;6.494;2022-12-18T02:13:17;15.70;;;12.15;;
2756;SDS011;1386;50.862;6.494;2022-12-18T02:15:50;16.88;;;13.00;;
2756;SDS011;1386;50.862;6.494;2022-12-18T02:18:25;17.38;;;11.57;;
2756;SDS011;1386;50.862;6.494;2022-12-18T02:20:58;14.15;;;12.68;;
2756;SDS011;1386;50.862;6.494;2022-12-18T02:23:38;19.10;;;13.30;;
2756;SDS011;1386;50.862;6.494;2022-12-18T02:26:18;17.95;;;13.43;;
2756;SDS011;1386;50.862;6.494;2022-12-18T02:28:49;15.80;;;12.40;;
2756;SDS011;1386;50.862;6.494;2022-12-18T02:31:20;16.85;;;12.82;;
2756;SDS011;1386;50.862;6.494;2022-12-18T02:33:58;20.13;;;13.45;;
2756;SDS011;1386;50.862;6.494;2022-12-18T02:36:28;16.75;;;14.20;;
2756;SDS011;1386;50.862;6.494;2022-12-18T02:38:58;20.98;;;13.82;;
2756;SDS011;1386;50.862;6.494;2022-12-18T02:41:28;15.95;;;14.18;;
2756;SDS011;1386;50.862;6.494;2022-12-18T02:43:57;15.40;;;12.10;;
2756;SDS011;1386;50.862;6.494;2022-12-18T02:46:31;15.15;;;13.05;;
2756;SDS011;1386;50.862;6.494;2022-12-18T02:49:02;20.90;;;13.82;;
2756;SDS011;1386;50.862;6.494;2022-12-18T02:51:38;21.75;;;14.40;;
2756;SDS011;1386;50.862;6.494;2022-12-18T02:54:16;19.42;;;12.77;;
2756;SDS011;1386;50.862;6.494;2022-12-18T02:56:51;22.38;;;14.27;;
2756;SDS011;1386;50.862;6.494;2022-12-18T02:59:23;18.67;;;14.20;;
2756;SDS011;1386;50.862;6.494;2022-12-18T03:42:46;18.83;;;14.43;;
2756;SDS011;1386;50.862;6.494;2022-12-18T05:49:22;22.23;;;15.27;;
2756;SDS011;1386;50.862;6.494;2022-12-18T05:51:49;23.88;;;16.42;;
2756;SDS011;1386;50.862;6.494;2022-12-18T05:54:20;22.13;;;14.90;;
2756;SDS011;1386;50.862;6.494;2022-12-18T05:57:11;18.42;;;15.50;;
2756;SDS011;1386;50.862;6.494;2022-12-18T05:59:40;23.70;;;15.90;;
2756;SDS011;1386;50.862;6.494;2022-12-18T06:02:16;20.58;;;14.60;;
2756;SDS011;1386;50.862;6.494;2022-12-18T06:04:56;23.45;;;16.30;;
2756;SDS011;1386;50.862;6.494;2022-12-18T06:07:28;23.17;;;16.50;;
2756;SDS011;1386;50.862;6.494;2022-12-18T06:09:59;22.27;;;15.23;;
2756;SDS011;1386;50.862;6.494;2022-12-18T06:12:40;21.05;;;15.25;;
2756;SDS011;1386;50.862;6.494;2022-12-18T06:15:12;20.13;;;15.23;;
2756;SDS011;1386;50.862;6.494;2022-12-18T06:17:40;23.98;;;14.95;;
2756;SDS011;1386;50.862;6.494;2022-12-18T06:20:18;22.75;;;15.00;;
2756;SDS011;1386;50.862;6.494;2022-12-18T06:22:59;24.65;;;15.55;;
2756;SDS011;1386;50.862;6.494;2022-12-18T06:25:39;25.05;;;15.77;;
2756;SDS011;1386;50.862;6.494;2022-12-18T06:28:14;22.13;;;15.35;;
2756;SDS011;1386;50.862;6.494;2022-12-18T06:30:57;23.67;;;16.38;;
2756;SDS011;1386;50.862;6.494;2022-12-18T06:33:29;22.10;;;14.38;;
2756;SDS011;1386;50.862;6.494;2022-12-18T06:36:09;20.92;;;15.52;;
2756;SDS011;1386;50.862;6.494;2022-12-18T06:38:47;23.60;;;15.93;;
2756;SDS011;1386;50.862;6.494;2022-12-18T06:41:36;22.60;;;15.55;;
2756;SDS011;1386;50.862;6.494;2022-12-18T06:44:09;19.10;;;15.60;;
2756;SDS011;1386;50.862;6.494;2022-12-18T06:46:47;22.70;;;15.50;;
2756;SDS011;1386;50.862;6.494;2022-12-18T06:49:26;20.90;;;15.75;;
2756;SDS011;1386;50.862;6.494;2022-12-18T06:52:01;22.45;;;15.35;;
2756;SDS011;1386;50.862;6.494;2022-12-18T06:54:52;22.35;;;15.02;;
2756;SDS011;1386;50.862;6.494;2022-12-18T06:58:01;20.35;;;16.10;;
2756;SDS011;1386;50.862;6.494;2022-12-18T07:00:36;21.63;;;16.73;;
2756;SDS011;1386;50.862;6.494;2022-12-18T07:06:00;27.33;;;16.35;;
2756;SDS011;1386;50.862;6.494;2022-12-18T07:09:00;23.90;;;16.08;;
2756;SDS011;1386;50.862;6.494;2022-12-18T07:14:21;28.25;;;17.17;;
2756;SDS011;1386;50.862;6.494;2022-12-18T07:20:09;22.70;;;15.63;;
2756;SDS011;1386;50.862;6.494;2022-12-18T07:25:40;28.77;;;19.33;;
2756;SDS011;1386;50.862;6.494;2022-12-18T07:28:07;27.45;;;17.58;;
2756;SDS011;1386;50.862;6.494;2022-12-18T07:30:45;24.98;;;18.92;;
2756;SDS011;1386;50.862;6.494;2022-12-18T07:33:31;27.85;;;17.33;;
2756;SDS011;1386;50.862;6.494;2022-12-18T07:35:59;28.88;;;19.13;;
2756;SDS011;1386;50.862;6.494;2022-12-18T07:38:26;26.20;;;19.20;;
2756;SDS011;1386;50.862;6.494;2022-12-18T07:40:55;25.15;;;17.65;;
2756;SDS011;1386;50.862;6.494;2022-12-18T07:43:26;22.15;;;17.02;;
2756;SDS011;1386;50.862;6.494;2022-12-18T07:45:53;27.55;;;18.40;;
2756;SDS011;1386;50.862;6.494;2022-12-18T07:48:27;29.38;;;19.30;;
2756;SDS011;1386;50.862;6.494;2022-12-18T07:51:02;27.85;;;17.48;;
2756;SDS011;1386;50.862;6.494;2022-12-18T07:57:17;24.75;;;16.58;;
2756;SDS011;1386;50.862;6.494;2022-12-18T07:59:44;28.90;;;19.33;;
2756;SDS011;1386;50.862;6.494;2022-12-18T08:02:12;21.77;;;16.40;;
2756;SDS011;1386;50.862;6.494;2022-12-18T08:04:40;26.75;;;18.23;;
2756;SDS011;1386;50.862;6.494;2022-12-18T08:07:07;31.50;;;19.63;;
2756;SDS011;1386;50.862;6.494;2022-12-18T08:09:34;25.23;;;18.73;;
2756;SDS011;1386;50.862;6.494;2022-12-18T08:12:01;28.25;;;17.08;;
2756;SDS011;1386;50.862;6.494;2022-12-18T08:14:41;28.67;;;18.20;;
2756;SDS011;1386;50.862;6.494;2022-12-18T08:17:08;24.90;;;18.90;;
2756;SDS011;1386;50.862;6.494;2022-12-18T08:19:35;28.77;;;18.95;;
2756;SDS011;1386;50.862;6.494;2022-12-18T08:22:03;31.90;;;19.10;;
2756;SDS011;1386;50.862;6.494;2022-12-18T08:24:30;26.83;;;18.25;;
2756;SDS011;1386;50.862;6.494;2022-12-18T08:26:57;30.20;;;18.98;;
2756;SDS011;1386;50.862;6.494;2022-12-18T08:29:24;29.52;;;18.30;;
2756;SDS011;1386;50.862;6.494;2022-12-18T08:31:52;30.23;;;16.88;;
2756;SDS011;1386;50.862;6.494;2022-12-18T08:34:19;25.48;;;18.40;;
2756;SDS011;1386;50.862;6.494;2022-12-18T08:36:46;25.38;;;18.58;;
2756;SDS011;1386;50.862;6.494;2022-12-18T08:39:13;26.08;;;17.42;;
2756;SDS011;1386;50.862;6.494;2022-12-18T08:41:42;24.92;;;16.98;;
2756;SDS011;1386;50.862;6.494;2022-12-18T08:44:29;22.30;;;17.73;;
2756;SDS011;1386;50.862;6.494;2022-12-18T08:47:05;24.67;;;17.45;;
2756;SDS011;1386;50.862;6.494;2022-12-18T08:49:36;30.90;;;18.98;;
2756;SDS011;1386;50.862;6.494;2022-12-18T08:52:03;27.90;;;18.08;;
2756;SDS011;1386;50.862;6.494;2022-12-18T08:54:31;23.88;;;20.05;;
2756;SDS011;1386;50.862;6.494;2022-12-18T08:56:58;27.02;;;18.33;;
2756;SDS011;1386;50.862;6.494;2022-12-18T08:59:27;32.85;;;19.30;;
2756;SDS011;1386;50.862;6.494;2022-12-18T09:01:54;32.55;;;19.70;;
2756;SDS011;1386;50.862;6.494;2022-12-18T09:04:23;27.45;;;18.23;;
2756;SDS011;1386;50.862;6.494;2022-12-18T09:06:49;26.02;;;18.58;;
2756;SDS011;1386;50.862;6.494;2022-12-18T09:09:16;24.13;;;17.70;;
2756;SDS011;1386;50.862;6.494;2022-12-18T09:11:43;26.65;;;18.10;;
2756;SDS011;1386;50.862;6.494;2022-12-18T09:14:10;25.20;;;18.73;;
2756;SDS011;1386;50.862;6.494;2022-12-18T09:16:37;25.52;;;17.25;;
2756;SDS011;1386;50.862;6.494;2022-12-18T09:19:04;24.98;;;19.17;;
2756;SDS011;1386;50.862;6.494;2022-12-18T09:21:42;25.52;;;18.50;;
2756;SDS011;1386;50.862;6.494;2022-12-18T09:24:09;27.00;;;18.13;;
2756;SDS011;1386;50.862;6.494;2022-12-18T09:26:39;24.55;;;16.65;;
2756;SDS011;1386;50.862;6.494;2022-12-18T09:29:06;30.42;;;19.85;;
2756;SDS011;1386;50.862;6.494;2022-12-18T09:31:33;27.25;;;17.98;;
2756;SDS011;1386;50.862;6.494;2022-12-18T09:34:01;24.05;;;18.45;;
2756;SDS011;1386;50.862;6.494;2022-12-18T09:36:28;25.55;;;17.80;;
2756;SDS011;1386;50.862;6.494;2022-12-18T09:38:56;23.60;;;16.70;;
2756;SDS011;1386;50.862;6.494;2022-12-18T09:41:27;25.85;;;18.65;;
2756;SDS011;1386;50.862;6.494;2022-12-18T09:44:05;22.52;;;16.38;;
2756;SDS011;1386;50.862;6.494;2022-12-18T09:46:40;27.92;;;17.38;;
2756;SDS011;1386;50.862;6.494;2022-12-18T09:49:11;31.27;;;19.52;;
2756;SDS011;1386;50.862;6.494;2022-12-18T09:51:41;32.17;;;18.10;;
2756;SDS011;1386;50.862;6.494;2022-12-18T09:54:14;31.75;;;20.08;;
2756;SDS011;1386;50.862;6.494;2022-12-18T09:56:46;26.80;;;17.50;;
2756;SDS011;1386;50.862;6.494;2022-12-18T09:59:16;26.33;;;18.67;;
2756;SDS011;1386;50.862;6.494;2022-12-18T10:01:47;26.25;;;18.00;;
2756;SDS011;1386;50.862;6.494;2022-12-18T10:04:18;27.42;;;16.55;;
2756;SDS011;1386;50.862;6.494;2022-12-18T10:06:48;26.77;;;17.23;;
2756;SDS011;1386;50.862;6.494;2022-12-18T10:09:24;25.40;;;17.95;;
2756;SDS011;1386;50.862;6.494;2022-12-18T10:12:00;25.30;;;16.42;;
2756;SDS011;1386;50.862;6.494;2022-12-18T10:14:34;28.38;;;15.98;;
2756;SDS011;1386;50.862;6.494;2022-12-18T10:17:10;21.83;;;16.25;;
2756;SDS011;1386;50.862;6.494;2022-12-18T10:19:56;28.65;;;16.90;;
2756;SDS011;1386;50.862;6.494;2022-12-18T10:22:50;29.00;;;18.73;;
2756;SDS011;1386;50.862;6.494;2022-12-18T10:29:14;23.40;;;16.27;;
2756;SDS011;1386;50.862;6.494;2022-12-18T10:31:50;23.83;;;18.00;;
2756;SDS011;1386;50.862;6.494;2022-12-18T10:42:23;19.60;;;14.65;;
2756;SDS011;1386;50.862;6.494;2022-12-18T10:48:54;22.27;;;17.25;;
2756;SDS011;1386;50.862;6.494;2022-12-18T10:51:36;27.73;;;18.60;;
2756;SDS011;1386;50.862;6.494;2022-12-18T10:54:12;27.27;;;17.55;;
2756;SDS011;1386;50.862;6.494;2022-12-18T11:00:35;22.15;;;16.33;;
2756;SDS011;1386;50.862;6.494;2022-12-18T13:19:18;28.55;;;17.58;;
2756;SDS011;1386;50.862;6.494;2022-12-18T15:02:41;33.50;;;19.80;;
2756;SDS011;1386;50.862;6.494;2022-12-18T15:05:15;33.90;;;20.13;;
2756;SDS011;1386;50.862;6.494;2022-12-18T15:07:45;35.67;;;21.92;;
2756;SDS011;1386;50.862;6.494;2022-12-18T15:10:14;29.35;;;20.70;;
2756;SDS011;1386;50.862;6.494;2022-12-18T15:12:42;36.47;;;21.50;;
2756;SDS011;1386;50.862;6.494;2022-12-18T15:18:17;33.22;;;20.73;;
2756;SDS011;1386;50.862;6.494;2022-12-18T15:20:49;34.83;;;20.48;;
2756;SDS011;1386;50.862;6.494;2022-12-18T15:23:19;31.45;;;20.40;;
2756;SDS011;1386;50.862;6.494;2022-12-18T15:25:48;34.38;;;20.60;;
2756;SDS011;1386;50.862;6.494;2022-12-18T15:28:21;30.73;;;20.48;;
2756;SDS011;1386;50.862;6.494;2022-12-18T15:31:00;30.52;;;19.75;;
2756;SDS011;1386;50.862;6.494;2022-12-18T15:33:31;32.78;;;20.05;;
2756;SDS011;1386;50.862;6.494;2022-12-18T15:36:01;31.75;;;22.40;;
2756;SDS011;1386;50.862;6.494;2022-12-18T15:38:29;30.80;;;21.08;;
2756;SDS011;1386;50.862;6.494;2022-12-18T15:41:01;30.95;;;21.90;;
2756;SDS011;1386;50.862;6.494;2022-12-18T15:43:28;39.83;;;24.80;;
2756;SDS011;1386;50.862;6.494;2022-12-18T15:46:01;35.17;;;22.90;;
2756;SDS011;1386;50.862;6.494;2022-12-18T15:48:31;36.88;;;22.95;;
2756;SDS011;1386;50.862;6.494;2022-12-18T15:50:59;38.53;;;25.42;;
2756;SDS011;1386;50.862;6.494;2022-12-18T15:53:27;40.05;;;24.77;;
2756;SDS011;1386;50.862;6.494;2022-12-18T15:55:58;42.95;;;25.98;;
2756;SDS011;1386;50.862;6.494;2022-12-18T15:58:42;33.97;;;21.60;;
2756;SDS011;1386;50.862;6.494;2022-12-18T16:01:09;36.33;;;22.10;;
2756;SDS011;1386;50.862;6.494;2022-12-18T16:03:39;35.15;;;22.40;;
2756;SDS011;1386;50.862;6.494;2022-12-18T16:06:06;37.80;;;22.67;;
2756;SDS011;1386;50.862;6.494;2022-12-18T16:08:35;40.47;;;22.70;;
2756;SDS011;1386;50.862;6.494;2022-12-18T16:11:03;34.05;;;21.23;;
2756;SDS011;1386;50.862;6.494;2022-12-18T16:13:30;35.92;;;23.77;;
2756;SDS011;1386;50.862;6.494;2022-12-18T16:15:57;36.40;;;22.33;;
2756;SDS011;1386;50.862;6.494;2022-12-18T16:18:24;35.15;;;23.50;;
2756;SDS011;1386;50.862;6.494;2022-12-18T16:20:52;36.65;;;24.27;;
2756;SDS011;1386;50.862;6.494;2022-12-18T16:23:19;32.63;;;21.88;;
2756;SDS011;1386;50.862;6.494;2022-12-18T16:25:46;35.88;;;21.60;;
2756;SDS011;1386;50.862;6.494;2022-12-18T16:28:13;34.65;;;22.63;;
2756;SDS011;1386;50.862;6.494;2022-12-18T16:30:40;33.90;;;22.27;;
2756;SDS011;1386;50.862;6.494;2022-12-18T16:33:21;33.58;;;21.88;;
2756;SDS011;1386;50.862;6.494;2022-12-18T16:35:51;34.33;;;22.63;;
2756;SDS011;1386;50.862;6.494;2022-12-18T16:38:19;35.95;;;22.23;;
2756;SDS011;1386;50.862;6.494;2022-12-18T16:40:46;35.50;;;23.48;;
2756;SDS011;1386;50.862;6.494;2022-12-18T16:43:30;36.65;;;23.17;;
2756;SDS011;1386;50.862;6.494;2022-12-18T16:45:58;36.38;;;21.65;;
2756;SDS011;1386;50.862;6.494;2022-12-18T16:48:25;35.28;;;22.02;;
2756;SDS011;1386;50.862;6.494;2022-12-18T16:50:55;28.67;;;20.67;;
2756;SDS011;1386;50.862;6.494;2022-12-18T16:53:26;35.85;;;23.35;;
2756;SDS011;1386;50.862;6.494;2022-12-18T16:55:55;32.88;;;21.33;;
2756;SDS011;1386;50.862;6.494;2022-12-18T16:58:22;39.15;;;23.52;;
2756;SDS011;1386;50.862;6.494;2022-12-18T17:00:49;35.67;;;23.67;;
2756;SDS011;1386;50.862;6.494;2022-12-18T17:03:15;37.67;;;23.15;;
2756;SDS011;1386;50.862;6.494;2022-12-18T17:05:42;30.85;;;22.38;;
2756;SDS011;1386;50.862;6.494;2022-12-18T17:08:11;35.72;;;22.80;;
2756;SDS011;1386;50.862;6.494;2022-12-18T17:10:37;32.97;;;22.33;;
2756;SDS011;1386;50.862;6.494;2022-12-18T17:13:04;35.20;;;23.58;;
2756;SDS011;1386;50.862;6.494;2022-12-18T17:15:33;37.95;;;24.42;;
2756;SDS011;1386;50.862;6.494;2022-12-18T17:18:01;35.92;;;24.33;;
2756;SDS011;1386;50.862;6.494;2022-12-18T17:20:28;37.83;;;22.38;;
2756;SDS011;1386;50.862;6.494;2022-12-18T17:22:56;32.92;;;21.20;;
2756;SDS011;1386;50.862;6.494;2022-12-18T17:25:25;37.35;;;22.55;;
2756;SDS011;1386;50.862;6.494;2022-12-18T17:27:52;39.50;;;22.50;;
2756;SDS011;1386;50.862;6.494;2022-12-18T17:30:19;38.25;;;23.58;;
2756;SDS011;1386;50.862;6.494;2022-12-18T17:32:46;39.90;;;25.65;;
2756;SDS011;1386;50.862;6.494;2022-12-18T17:35:15;35.25;;;23.55;;
2756;SDS011;1386;50.862;6.494;2022-12-18T17:37:42;40.00;;;23.88;;
2756;SDS011;1386;50.862;6.494;2022-12-18T17:40:09;37.90;;;24.80;;
2756;SDS011;1386;50.862;6.494;2022-12-18T17:42:38;30.17;;;22.70;;
2756;SDS011;1386;50.862;6.494;2022-12-18T17:45:05;38.03;;;23.30;;
2756;SDS011;1386;50.862;6.494;2022-12-18T17:47:45;37.50;;;23.27;;
2756;SDS011;1386;50.862;6.494;2022-12-18T17:50:31;38.50;;;25.00;;
2756;SDS011;1386;50.862;6.494;2022-12-18T17:52:58;40.75;;;23.20;;
2756;SDS011;1386;50.862;6.494;2022-12-18T17:55:26;34.25;;;23.13;;
2756;SDS011;1386;50.862;6.494;2022-12-18T17:57:55;35.53;;;23.90;;
2756;SDS011;1386;50.862;6.494;2022-12-18T18:00:21;39.33;;;24.25;;
2756;SDS011;1386;50.862;6.494;2022-12-18T18:02:48;36.63;;;23.08;;
2756;SDS011;1386;50.862;6.494;2022-12-18T18:05:15;40.10;;;25.80;;
2756;SDS011;1386;50.862;6.494;2022-12-18T18:07:42;38.33;;;25.58;;
2756;SDS011;1386;50.862;6.494;2022-12-18T18:10:09;36.15;;;22.10;;
2756;SDS011;1386;50.862;6.494;2022-12-18T18:12:36;35.78;;;25.23;;
2756;SDS011;1386;50.862;6.494;2022-12-18T18:15:21;36.50;;;22.15;;
2756;SDS011;1386;50.862;6.494;2022-12-18T18:17:48;35.10;;;21.85;;
2756;SDS011;1386;50.862;6.494;2022-12-18T18:20:15;34.75;;;24.73;;
2756;SDS011;1386;50.862;6.494;2022-12-18T18:22:42;33.42;;;23.02;;
2756;SDS011;1386;50.862;6.494;2022-12-18T18:25:09;32.08;;;23.13;;
2756;SDS011;1386;50.862;6.494;2022-12-18T18:27:36;36.33;;;22.85;;
2756;SDS011;1386;50.862;6.494;2022-12-18T18:30:03;36.58;;;24.45;;
2756;SDS011;1386;50.862;6.494;2022-12-18T18:35:03;38.78;;;22.90;;
2756;SDS011;1386;50.862;6.494;2022-12-18T18:37:32;33.78;;;23.48;;
2756;SDS011;1386;50.862;6.494;2022-12-18T18:40:00;42.42;;;24.20;;
2756;SDS011;1386;50.862;6.494;2022-12-18T18:42:27;37.03;;;23.52;;
2756;SDS011;1386;50.862;6.494;2022-12-18T18:44:55;35.33;;;22.60;;
2756;SDS011;1386;50.862;6.494;2022-12-18T18:47:21;40.40;;;26.15;;
2756;SDS011;1386;50.862;6.494;2022-12-18T18:49:50;37.50;;;23.38;;
2756;SDS011;1386;50.862;6.494;2022-12-18T18:52:17;39.55;;;23.95;;
2756;SDS011;1386;50.862;6.494;2022-12-18T18:54:45;41.13;;;24.23;;
2756;SDS011;1386;50.862;6.494;2022-12-18T18:57:13;38.78;;;24.25;;
2756;SDS011;1386;50.862;6.494;2022-12-18T18:59:40;37.30;;;24.58;;
2756;SDS011;1386;50.862;6.494;2022-12-18T19:02:08;41.53;;;23.58;;
2756;SDS011;1386;50.862;6.494;2022-12-18T19:04:37;37.08;;;23.85;;
2756;SDS011;1386;50.862;6.494;2022-12-18T19:07:06;34.10;;;22.50;;
2756;SDS011;1386;50.862;6.494;2022-12-18T19:09:38;43.47;;;25.60;;
2756;SDS011;1386;50.862;6.494;2022-12-18T19:12:05;42.38;;;27.33;;
2756;SDS011;1386;50.862;6.494;2022-12-18T19:14:49;39.65;;;22.25;;
2756;SDS011;1386;50.862;6.494;2022-12-18T19:17:16;37.03;;;24.52;;
2756;SDS011;1386;50.862;6.494;2022-12-18T19:19:43;40.72;;;25.25;;
2756;SDS011;1386;50.862;6.494;2022-12-18T19:22:12;52.70;;;27.25;;
2756;SDS011;1386;50.862;6.494;2022-12-18T19:24:39;37.72;;;25.10;;
2756;SDS011;1386;50.862;6.494;2022-12-18T19:27:12;43.47;;;26.27;;
2756;SDS011;1386;50.862;6.494;2022-12-18T19:29:54;35.38;;;23.42;;
2756;SDS011;1386;50.862;6.494;2022-12-18T19:32:23;43.53;;;26.77;;
2756;SDS011;1386;50.862;6.494;2022-12-18T19:34:59;42.85;;;24.52;;
2756;SDS011;1386;50.862;6.494;2022-12-18T19:37:46;44.28;;;26.23;;
2756;SDS011;1386;50.862;6.494;2022-12-18T19:40:30;37.03;;;23.52;;
2756;SDS011;1386;50.862;6.494;2022-12-18T19:43:25;40.10;;;26.08;;
2756;SDS011;1386;50.862;6.494;2022-12-18T19:46:06;42.80;;;25.20;;
2756;SDS011;1386;50.862;6.494;2022-12-18T19:48:40;39.30;;;25.50;;
2756;SDS011;1386;50.862;6.494;2022-12-18T19:51:11;38.47;;;25.25;;
2756;SDS011;1386;50.862;6.494;2022-12-18T19:53:53;37.13;;;23.05;;
2756;SDS011;1386;50.862;6.494;2022-12-18T19:56:31;39.10;;;24.20;;
2756;SDS011;1386;50.862;6.494;2022-12-18T19:59:02;41.00;;;24.17;;
2756;SDS011;1386;50.862;6.494;2022-12-18T20:01:32;35.67;;;21.50;;
2756;SDS011;1386;50.862;6.494;2022-12-18T20:04:01;42.70;;;25.45;;
2756;SDS011;1386;50.862;6.494;2022-12-18T20:06:30;39.20;;;24.00;;
2756;SDS011;1386;50.862;6.494;2022-12-18T20:09:11;33.28;;;20.80;;
2756;SDS011;1386;50.862;6.494;2022-12-18T20:11:38;36.08;;;22.52;;
2756;SDS011;1386;50.862;6.494;2022-12-18T20:14:05;36.85;;;24.63;;
2756;SDS011;1386;50.862;6.494;2022-12-18T20:16:32;37.38;;;23.45;;
2756;SDS011;1386;50.862;6.494;2022-12-18T20:18:59;34.97;;;22.00;;
2756;SDS011;1386;50.862;6.494;2022-12-18T20:21:26;39.45;;;24.73;;
2756;SDS011;1386;50.862;6.494;2022-12-18T20:23:52;40.13;;;23.48;;
2756;SDS011;1386;50.862;6.494;2022-12-18T20:26:21;36.72;;;23.10;;
2756;SDS011;1386;50.862;6.494;2022-12-18T20:28:48;37.50;;;23.55;;
2756;SDS011;1386;50.862;6.494;2022-12-18T20:31:15;43.33;;;24.75;;
2756;SDS011;1386;50.862;6.494;2022-12-18T20:33:44;43.15;;;24.13;;
2756;SDS011;1386;50.862;6.494;2022-12-18T20:36:11;40.88;;;24.10;;
2756;SDS011;1386;50.862;6.494;2022-12-18T20:38:40;35.53;;;23.25;;
2756;SDS011;1386;50.862;6.494;2022-12-18T20:41:07;35.00;;;21.73;;
2756;SDS011;1386;50.862;6.494;2022-12-18T20:43:37;42.20;;;24.75;;
2756;SDS011;1386;50.862;6.494;2022-12-18T20:46:08;36.65;;;22.77;;
2756;SDS011;1386;50.862;6.494;2022-12-18T20:48:37;39.90;;;23.40;;
2756;SDS011;1386;50.862;6.494;2022-12-18T20:51:04;35.90;;;23.10;;
2756;SDS011;1386;50.862;6.494;2022-12-18T20:53:32;34.85;;;23.40;;
2756;SDS011;1386;50.862;6.494;2022-12-18T20:56:04;35.65;;;22.65;;
2756;SDS011;1386;50.862;6.494;2022-12-18T20:58:31;36.97;;;23.65;;
2756;SDS011;1386;50.862;6.494;2022-12-18T21:27:57;35.55;;;24.45;;
2756;SDS011;1386;50.862;6.494;2022-12-18T21:30:26;40.28;;;25.92;;
2756;SDS011;1386;50.862;6.494;2022-12-18T21:32:53;47.45;;;25.42;;
2756;SDS011;1386;50.862;6.494;2022-12-18T21:35:33;47.13;;;25.65;;
2756;SDS011;1386;50.862;6.494;2022-12-18T21:38:09;42.28;;;27.02;;
2756;SDS011;1386;50.862;6.494;2022-12-18T21:40:56;42.60;;;25.65;;
2756;SDS011;1386;50.862;6.494;2022-12-18T21:43:23;39.90;;;25.25;;
2756;SDS011;1386;50.862;6.494;2022-12-18T21:46:07;46.55;;;26.90;;
2756;SDS011;1386;50.862;6.494;2022-12-18T21:48:40;50.13;;;28.05;;
2756;SDS011;1386;50.862;6.494;2022-12-18T21:51:11;41.20;;;25.85;;
2756;SDS011;1386;50.862;6.494;2022-12-18T21:53:38;41.40;;;26.80;;
2756;SDS011;1386;50.862;6.494;2022-12-18T21:56:05;44.45;;;26.92;;
2756;SDS011;1386;50.862;6.494;2022-12-18T21:58:32;43.65;;;26.85;;
2756;SDS011;1386;50.862;6.494;2022-12-18T22:01:02;40.22;;;25.38;;
2756;SDS011;1386;50.862;6.494;2022-12-18T22:03:29;41.83;;;26.88;;
2756;SDS011;1386;50.862;6.494;2022-12-18T22:05:56;41.78;;;24.67;;
2756;SDS011;1386;50.862;6.494;2022-12-18T22:28:14;46.45;;;27.08;;
2756;SDS011;1386;50.862;6.494;2022-12-18T22:31:09;42.40;;;26.13;;
2756;SDS011;1386;50.862;6.494;2022-12-18T22:33:39;46.20;;;27.33;;
2756;SDS011;1386;50.862;6.494;2022-12-18T22:36:06;46.65;;;27.25;;
2756;SDS011;1386;50.862;6.494;2022-12-18T22:38:33;44.22;;;24.30;;
2756;SDS011;1386;50.862;6.494;2022-12-18T22:41:20;41.75;;;24.98;;
2756;SDS011;1386;50.862;6.494;2022-12-18T22:43:48;40.75;;;26.60;;
2756;SDS011;1386;50.862;6.494;2022-12-18T22:46:26;43.78;;;27.23;;
2756;SDS011;1386;50.862;6.494;2022-12-18T22:49:04;38.50;;;24.27;;
2756;SDS011;1386;50.862;6.494;2022-12-18T22:51:41;46.42;;;26.38;;
2756;SDS011;1386;50.862;6.494;2022-12-18T22:54:08;43.10;;;25.83;;
2756;SDS011;1386;50.862;6.494;2022-12-18T22:56:35;42.95;;;27.15;;
2756;SDS011;1386;50.862;6.494;2022-12-18T22:59:03;43.80;;;23.55;;
2756;SDS011;1386;50.862;6.494;2022-12-18T23:01:31;42.70;;;26.00;;
2756;SDS011;1386;50.862;6.494;2022-12-18T23:04:17;39.60;;;24.70;;
2756;SDS011;1386;50.862;6.494;2022-12-18T23:06:51;45.15;;;25.80;;
2756;SDS011;1386;50.862;6.494;2022-12-18T23:09:18;45.25;;;28.00;;
2756;SDS011;1386;50.862;6.494;2022-12-18T23:11:46;37.63;;;24.60;;
2756;SDS011;1386;50.862;6.494;2022-12-18T23:14:17;44.80;;;25.70;;
2756;SDS011;1386;50.862;6.494;2022-12-18T23:16:44;45.33;;;26.48;;
2756;SDS011;1386;50.862;6.494;2022-12-18T23:19:17;39.50;;;24.73;;
2756;SDS011;1386;50.862;6.494;2022-12-18T23:21:50;44.85;;;26.23;;
2756;SDS011;1386;50.862;6.494;2022-12-18T23:24:17;49.28;;;26.00;;
2756;SDS011;1386;50.862;6.494;2022-12-18T23:26:47;43.10;;;24.95;;
2756;SDS011;1386;50.862;6.494;2022-12-18T23:29:15;39.80;;;24.48;;
2756;SDS011;1386;50.862;6.494;2022-12-18T23:31:42;46.88;;;27.17;;
2756;SDS011;1386;50.862;6.494;2022-12-18T23:34:09;38.53;;;25.27;;
2756;SDS011;1386;50.862;6.494;2022-12-18T23:37:05;44.03;;;24.65;;